sensor_id;sensor_type;location;lat;lon;timestamp;P1;durP1;ratioP1;P2;durP2;ratioP2
17091;SDS011;8661;45.700;4.880;2023-02-03T00:02:26;4.93;;;1.40;;
17091;SDS011;8661;45.700;4.880;2023-02-03T00:04:52;3.63;;;1.67;;
17091;SDS011;8661;45.700;4.880;2023-02-03T00:07:19;7.00;;;2.37;;
17091;SDS011;8661;45.700;4.880;2023-02-03T00:09:47;5.87;;;1.83;;
17091;SDS011;8661;45.700;4.880;2023-02-03T00:12:14;5.63;;;1.67;;
17091;SDS011;8661;45.700;4.880;2023-02-03T00:14:41;4.53;;;1.90;;
17091;SDS011;8661;45.700;4.880;2023-02-03T00:17:07;5.10;;;1.90;;
17091;SDS011;8661;45.700;4.880;2023-02-03T00:19:36;6.37;;;1.63;;
17091;SDS011;8661;45.700;4.880;2023-02-03T00:22:03;4.23;;;1.40;;
17091;SDS011;8661;45.700;4.880;2023-02-03T00:24:29;6.70;;;1.53;;
17091;SDS011;8661;45.700;4.880;2023-02-03T00:26:56;4.87;;;1.73;;
17091;SDS011;8661;45.700;4.880;2023-02-03T00:29:23;4.53;;;1.80;;
17091;SDS011;8661;45.700;4.880;2023-02-03T00:31:50;5.17;;;1.80;;
17091;SDS011;8661;45.700;4.880;2023-02-03T00:34:18;5.33;;;1.60;;
17091;SDS011;8661;45.700;4.880;2023-02-03T00:36:46;5.37;;;1.67;;
17091;SDS011;8661;45.700;4.880;2023-02-03T00:39:13;2.83;;;1.50;;
17091;SDS011;8661;45.700;4.880;2023-02-03T00:41:40;4.53;;;1.40;;
17091;SDS011;8661;45.700;4.880;2023-02-03T00:44:07;6.50;;;1.50;;
17091;SDS011;8661;45.700;4.880;2023-02-03T00:46:34;7.23;;;1.50;;
17091;SDS011;8661;45.700;4.880;2023-02-03T00:49:02;7.30;;;1.77;;
17091;SDS011;8661;45.700;4.880;2023-02-03T00:51:29;7.57;;;1.80;;
17091;SDS011;8661;45.700;4.880;2023-02-03T00:53:57;4.47;;;1.50;;
17091;SDS011;8661;45.700;4.880;2023-02-03T00:56:24;6.77;;;1.83;;
17091;SDS011;8661;45.700;4.880;2023-02-03T00:58:51;10.20;;;2.57;;
17091;SDS011;8661;45.700;4.880;2023-02-03T01:01:19;3.57;;;1.50;;
17091;SDS011;8661;45.700;4.880;2023-02-03T01:03:46;6.53;;;1.73;;
17091;SDS011;8661;45.700;4.880;2023-02-03T01:06:14;4.10;;;1.23;;
17091;SDS011;8661;45.700;4.880;2023-02-03T01:08:43;3.90;;;1.50;;
17091;SDS011;8661;45.700;4.880;2023-02-03T01:11:12;3.60;;;1.40;;
17091;SDS011;8661;45.700;4.880;2023-02-03T01:13:41;6.07;;;1.50;;
17091;SDS011;8661;45.700;4.880;2023-02-03T01:16:08;9.80;;;1.87;;
17091;SDS011;8661;45.700;4.880;2023-02-03T01:18:37;3.53;;;1.57;;
17091;SDS011;8661;45.700;4.880;2023-02-03T01:21:04;4.70;;;1.50;;
17091;SDS011;8661;45.700;4.880;2023-02-03T01:23:32;4.97;;;1.63;;
17091;SDS011;8661;45.700;4.880;2023-02-03T01:26:01;3.37;;;1.40;;
17091;SDS011;8661;45.700;4.880;2023-02-03T01:28:30;8.00;;;2.00;;
17091;SDS011;8661;45.700;4.880;2023-02-03T01:31:00;8.23;;;1.57;;
17091;SDS011;8661;45.700;4.880;2023-02-03T01:33:34;7.33;;;2.27;;
17091;SDS011;8661;45.700;4.880;2023-02-03T01:36:01;9.10;;;1.90;;
17091;SDS011;8661;45.700;4.880;2023-02-03T01:38:28;7.30;;;1.63;;
17091;SDS011;8661;45.700;4.880;2023-02-03T01:40:55;3.03;;;1.53;;
17091;SDS011;8661;45.700;4.880;2023-02-03T01:43:30;7.90;;;1.50;;
17091;SDS011;8661;45.700;4.880;2023-02-03T01:45:58;7.03;;;1.80;;
17091;SDS011;8661;45.700;4.880;2023-02-03T01:48:26;6.03;;;1.57;;
17091;SDS011;8661;45.700;4.880;2023-02-03T01:50:53;5.77;;;1.90;;
17091;SDS011;8661;45.700;4.880;2023-02-03T01:53:20;7.43;;;2.10;;
17091;SDS011;8661;45.700;4.880;2023-02-03T01:55:47;4.27;;;1.83;;
17091;SDS011;8661;45.700;4.880;2023-02-03T01:58:16;6.50;;;2.23;;
17091;SDS011;8661;45.700;4.880;2023-02-03T02:00:47;7.00;;;1.60;;
17091;SDS011;8661;45.700;4.880;2023-02-03T02:03:15;8.93;;;2.07;;
17091;SDS011;8661;45.700;4.880;2023-02-03T02:05:45;6.57;;;1.77;;
17091;SDS011;8661;45.700;4.880;2023-02-03T02:08:15;4.63;;;1.93;;
17091;SDS011;8661;45.700;4.880;2023-02-03T02:10:46;5.87;;;1.90;;
17091;SDS011;8661;45.700;4.880;2023-02-03T02:13:14;5.27;;;1.40;;
17091;SDS011;8661;45.700;4.880;2023-02-03T02:15:43;7.30;;;1.93;;
17091;SDS011;8661;45.700;4.880;2023-02-03T02:18:23;7.97;;;2.20;;
17091;SDS011;8661;45.700;4.880;2023-02-03T02:27:17;4.67;;;1.90;;
17091;SDS011;8661;45.700;4.880;2023-02-03T02:30:04;6.03;;;1.90;;
17091;SDS011;8661;45.700;4.880;2023-02-03T02:33:04;3.13;;;1.97;;
17091;SDS011;8661;45.700;4.880;2023-02-03T02:35:46;3.83;;;1.80;;
17091;SDS011;8661;45.700;4.880;2023-02-03T02:38:24;6.43;;;1.90;;
17091;SDS011;8661;45.700;4.880;2023-02-03T02:41:01;8.37;;;1.80;;
17091;SDS011;8661;45.700;4.880;2023-02-03T02:43:34;9.67;;;2.20;;
17091;SDS011;8661;45.700;4.880;2023-02-03T02:46:08;5.30;;;1.80;;
17091;SDS011;8661;45.700;4.880;2023-02-03T02:48:41;8.10;;;1.63;;
17091;SDS011;8661;45.700;4.880;2023-02-03T02:51:11;5.33;;;1.70;;
17091;SDS011;8661;45.700;4.880;2023-02-03T02:53:42;5.83;;;1.77;;
17091;SDS011;8661;45.700;4.880;2023-02-03T02:56:13;5.30;;;1.60;;
17091;SDS011;8661;45.700;4.880;2023-02-03T02:58:42;5.00;;;1.60;;
17091;SDS011;8661;45.700;4.880;2023-02-03T03:01:13;4.03;;;1.43;;
17091;SDS011;8661;45.700;4.880;2023-02-03T03:03:43;6.20;;;2.10;;
17091;SDS011;8661;45.700;4.880;2023-02-03T03:06:12;5.47;;;1.87;;
17091;SDS011;8661;45.700;4.880;2023-02-03T03:08:44;6.33;;;1.23;;
17091;SDS011;8661;45.700;4.880;2023-02-03T03:11:14;8.10;;;1.70;;
17091;SDS011;8661;45.700;4.880;2023-02-03T03:13:43;4.77;;;1.40;;
17091;SDS011;8661;45.700;4.880;2023-02-03T03:16:15;6.63;;;1.60;;
17091;SDS011;8661;45.700;4.880;2023-02-03T03:18:49;2.73;;;1.40;;
17091;SDS011;8661;45.700;4.880;2023-02-03T03:21:21;5.90;;;1.63;;
17091;SDS011;8661;45.700;4.880;2023-02-03T03:23:50;4.33;;;1.50;;
17091;SDS011;8661;45.700;4.880;2023-02-03T03:26:23;6.87;;;1.40;;
17091;SDS011;8661;45.700;4.880;2023-02-03T03:28:56;3.23;;;1.33;;
17091;SDS011;8661;45.700;4.880;2023-02-03T03:31:32;4.70;;;1.40;;
17091;SDS011;8661;45.700;4.880;2023-02-03T03:34:00;3.77;;;1.73;;
17091;SDS011;8661;45.700;4.880;2023-02-03T03:36:28;5.50;;;1.80;;
17091;SDS011;8661;45.700;4.880;2023-02-03T03:38:59;4.70;;;1.47;;
17091;SDS011;8661;45.700;4.880;2023-02-03T03:41:35;4.40;;;1.33;;
17091;SDS011;8661;45.700;4.880;2023-02-03T03:44:08;7.60;;;1.50;;
17091;SDS011;8661;45.700;4.880;2023-02-03T03:46:39;4.90;;;1.40;;
17091;SDS011;8661;45.700;4.880;2023-02-03T03:49:12;5.13;;;1.70;;
17091;SDS011;8661;45.700;4.880;2023-02-03T03:51:41;4.40;;;1.57;;
17091;SDS011;8661;45.700;4.880;2023-02-03T03:54:13;5.13;;;1.83;;
17091;SDS011;8661;45.700;4.880;2023-02-03T03:56:44;4.43;;;1.33;;
17091;SDS011;8661;45.700;4.880;2023-02-03T03:59:15;7.93;;;1.80;;
17091;SDS011;8661;45.700;4.880;2023-02-03T04:01:46;7.80;;;1.80;;
17091;SDS011;8661;45.700;4.880;2023-02-03T04:04:16;6.77;;;1.60;;
17091;SDS011;8661;45.700;4.880;2023-02-03T04:06:43;4.57;;;1.47;;
17091;SDS011;8661;45.700;4.880;2023-02-03T04:09:10;4.63;;;1.30;;
17091;SDS011;8661;45.700;4.880;2023-02-03T04:11:37;4.90;;;1.43;;
17091;SDS011;8661;45.700;4.880;2023-02-03T04:14:21;6.53;;;1.40;;
17091;SDS011;8661;45.700;4.880;2023-02-03T04:16:48;2.90;;;1.37;;
17091;SDS011;8661;45.700;4.880;2023-02-03T04:19:16;5.37;;;1.30;;
17091;SDS011;8661;45.700;4.880;2023-02-03T04:21:43;6.60;;;1.53;;
17091;SDS011;8661;45.700;4.880;2023-02-03T04:24:10;4.13;;;1.27;;
17091;SDS011;8661;45.700;4.880;2023-02-03T04:26:37;5.17;;;1.60;;
17091;SDS011;8661;45.700;4.880;2023-02-03T04:29:04;5.57;;;1.40;;
17091;SDS011;8661;45.700;4.880;2023-02-03T04:31:31;7.80;;;1.80;;
17091;SDS011;8661;45.700;4.880;2023-02-03T04:33:58;4.40;;;1.33;;
17091;SDS011;8661;45.700;4.880;2023-02-03T04:36:26;6.43;;;1.50;;
17091;SDS011;8661;45.700;4.880;2023-02-03T04:38:53;3.40;;;1.43;;
17091;SDS011;8661;45.700;4.880;2023-02-03T04:41:20;2.93;;;1.30;;
17091;SDS011;8661;45.700;4.880;2023-02-03T04:43:47;9.00;;;2.30;;
17091;SDS011;8661;45.700;4.880;2023-02-03T04:46:14;2.90;;;1.33;;
17091;SDS011;8661;45.700;4.880;2023-02-03T04:48:42;5.97;;;1.60;;
17091;SDS011;8661;45.700;4.880;2023-02-03T04:51:09;3.67;;;1.40;;
17091;SDS011;8661;45.700;4.880;2023-02-03T04:53:37;6.07;;;1.60;;
17091;SDS011;8661;45.700;4.880;2023-02-03T04:56:04;6.03;;;1.80;;
17091;SDS011;8661;45.700;4.880;2023-02-03T04:58:31;7.20;;;1.73;;
17091;SDS011;8661;45.700;4.880;2023-02-03T05:01:04;5.43;;;1.77;;
17091;SDS011;8661;45.700;4.880;2023-02-03T05:03:32;4.57;;;1.60;;
17091;SDS011;8661;45.700;4.880;2023-02-03T05:05:59;8.03;;;1.67;;
17091;SDS011;8661;45.700;4.880;2023-02-03T05:08:27;4.57;;;1.57;;
17091;SDS011;8661;45.700;4.880;2023-02-03T05:10:55;6.17;;;1.57;;
17091;SDS011;8661;45.700;4.880;2023-02-03T05:13:23;4.93;;;1.63;;
17091;SDS011;8661;45.700;4.880;2023-02-03T05:15:49;5.37;;;1.70;;
17091;SDS011;8661;45.700;4.880;2023-02-03T05:18:16;12.13;;;2.40;;
17091;SDS011;8661;45.700;4.880;2023-02-03T05:20:43;4.93;;;1.67;;
17091;SDS011;8661;45.700;4.880;2023-02-03T05:23:10;6.90;;;1.80;;
17091;SDS011;8661;45.700;4.880;2023-02-03T05:25:37;13.17;;;2.30;;
17091;SDS011;8661;45.700;4.880;2023-02-03T05:28:05;4.63;;;1.70;;
17091;SDS011;8661;45.700;4.880;2023-02-03T05:30:32;4.47;;;1.70;;
17091;SDS011;8661;45.700;4.880;2023-02-03T05:32:59;6.80;;;1.93;;
17091;SDS011;8661;45.700;4.880;2023-02-03T05:35:25;7.13;;;2.20;;
17091;SDS011;8661;45.700;4.880;2023-02-03T05:37:52;8.40;;;2.13;;
17091;SDS011;8661;45.700;4.880;2023-02-03T05:40:19;8.00;;;1.90;;
17091;SDS011;8661;45.700;4.880;2023-02-03T05:43:05;4.67;;;1.93;;
17091;SDS011;8661;45.700;4.880;2023-02-03T05:45:33;6.97;;;2.13;;
17091;SDS011;8661;45.700;4.880;2023-02-03T05:47:59;8.77;;;2.23;;
17091;SDS011;8661;45.700;4.880;2023-02-03T05:50:27;10.17;;;2.43;;
17091;SDS011;8661;45.700;4.880;2023-02-03T05:52:57;9.43;;;2.20;;
17091;SDS011;8661;45.700;4.880;2023-02-03T05:55:25;8.33;;;2.13;;
17091;SDS011;8661;45.700;4.880;2023-02-03T05:57:52;7.37;;;2.10;;
17091;SDS011;8661;45.700;4.880;2023-02-03T06:00:21;5.73;;;1.97;;
17091;SDS011;8661;45.700;4.880;2023-02-03T06:02:51;4.03;;;1.97;;
17091;SDS011;8661;45.700;4.880;2023-02-03T06:05:20;5.73;;;2.30;;
17091;SDS011;8661;45.700;4.880;2023-02-03T06:07:47;5.63;;;2.50;;
17091;SDS011;8661;45.700;4.880;2023-02-03T06:10:15;7.23;;;2.10;;
17091;SDS011;8661;45.700;4.880;2023-02-03T06:12:42;9.13;;;2.30;;
17091;SDS011;8661;45.700;4.880;2023-02-03T06:15:09;7.03;;;2.07;;
17091;SDS011;8661;45.700;4.880;2023-02-03T06:17:38;7.67;;;2.33;;
17091;SDS011;8661;45.700;4.880;2023-02-03T06:20:05;10.63;;;2.10;;
17091;SDS011;8661;45.700;4.880;2023-02-03T06:22:34;8.00;;;2.27;;
17091;SDS011;8661;45.700;4.880;2023-02-03T06:25:01;8.17;;;2.00;;
17091;SDS011;8661;45.700;4.880;2023-02-03T06:27:28;5.97;;;1.90;;
17091;SDS011;8661;45.700;4.880;2023-02-03T06:29:54;9.40;;;1.87;;
17091;SDS011;8661;45.700;4.880;2023-02-03T06:32:21;6.60;;;2.13;;
17091;SDS011;8661;45.700;4.880;2023-02-03T06:34:50;9.65;;;2.75;;
17091;SDS011;8661;45.700;4.880;2023-02-03T06:37:16;8.43;;;2.30;;
17091;SDS011;8661;45.700;4.880;2023-02-03T06:39:43;8.70;;;2.73;;
17091;SDS011;8661;45.700;4.880;2023-02-03T06:42:10;10.97;;;2.40;;
17091;SDS011;8661;45.700;4.880;2023-02-03T06:44:39;6.63;;;2.27;;
17091;SDS011;8661;45.700;4.880;2023-02-03T06:47:06;6.87;;;2.13;;
17091;SDS011;8661;45.700;4.880;2023-02-03T06:49:33;10.60;;;2.10;;
17091;SDS011;8661;45.700;4.880;2023-02-03T06:52:01;11.03;;;2.70;;
17091;SDS011;8661;45.700;4.880;2023-02-03T06:54:28;9.23;;;2.07;;
17091;SDS011;8661;45.700;4.880;2023-02-03T06:56:54;7.60;;;2.10;;
17091;SDS011;8661;45.700;4.880;2023-02-03T06:59:21;8.23;;;2.10;;
17091;SDS011;8661;45.700;4.880;2023-02-03T07:01:48;7.80;;;2.07;;
17091;SDS011;8661;45.700;4.880;2023-02-03T07:04:15;5.20;;;1.97;;
17091;SDS011;8661;45.700;4.880;2023-02-03T07:06:42;4.43;;;1.57;;
17091;SDS011;8661;45.700;4.880;2023-02-03T07:09:10;5.33;;;1.37;;
17091;SDS011;8661;45.700;4.880;2023-02-03T07:11:37;14.40;;;1.93;;
17091;SDS011;8661;45.700;4.880;2023-02-03T07:14:04;9.00;;;2.47;;
17091;SDS011;8661;45.700;4.880;2023-02-03T07:16:31;9.47;;;2.33;;
17091;SDS011;8661;45.700;4.880;2023-02-03T07:19:00;5.73;;;1.57;;
17091;SDS011;8661;45.700;4.880;2023-02-03T07:21:27;8.33;;;1.40;;
17091;SDS011;8661;45.700;4.880;2023-02-03T07:23:54;10.40;;;1.67;;
17091;SDS011;8661;45.700;4.880;2023-02-03T07:26:22;7.13;;;1.70;;
17091;SDS011;8661;45.700;4.880;2023-02-03T07:28:50;5.93;;;1.70;;
17091;SDS011;8661;45.700;4.880;2023-02-03T07:31:18;10.43;;;1.77;;
17091;SDS011;8661;45.700;4.880;2023-02-03T07:33:45;4.93;;;1.70;;
17091;SDS011;8661;45.700;4.880;2023-02-03T07:36:12;4.70;;;1.87;;
17091;SDS011;8661;45.700;4.880;2023-02-03T07:38:39;5.40;;;1.60;;
17091;SDS011;8661;45.700;4.880;2023-02-03T07:41:06;5.73;;;1.73;;
17091;SDS011;8661;45.700;4.880;2023-02-03T07:43:34;5.47;;;1.50;;
17091;SDS011;8661;45.700;4.880;2023-02-03T07:46:01;5.90;;;1.53;;
17091;SDS011;8661;45.700;4.880;2023-02-03T07:48:28;3.00;;;1.40;;
17091;SDS011;8661;45.700;4.880;2023-02-03T07:50:55;9.67;;;2.07;;
17091;SDS011;8661;45.700;4.880;2023-02-03T07:53:22;4.90;;;1.90;;
17091;SDS011;8661;45.700;4.880;2023-02-03T07:55:50;5.23;;;1.80;;
17091;SDS011;8661;45.700;4.880;2023-02-03T07:58:17;5.53;;;1.67;;
17091;SDS011;8661;45.700;4.880;2023-02-03T08:00:45;5.77;;;2.00;;
17091;SDS011;8661;45.700;4.880;2023-02-03T08:03:12;11.37;;;2.23;;
17091;SDS011;8661;45.700;4.880;2023-02-03T08:05:39;4.57;;;2.03;;
17091;SDS011;8661;45.700;4.880;2023-02-03T08:08:06;18.50;;;2.50;;
17091;SDS011;8661;45.700;4.880;2023-02-03T08:10:33;7.07;;;2.13;;
17091;SDS011;8661;45.700;4.880;2023-02-03T08:13:00;7.63;;;1.80;;
17091;SDS011;8661;45.700;4.880;2023-02-03T08:15:27;3.93;;;1.90;;
17091;SDS011;8661;45.700;4.880;2023-02-03T08:17:55;4.50;;;1.60;;
17091;SDS011;8661;45.700;4.880;2023-02-03T08:20:22;6.13;;;1.63;;
17091;SDS011;8661;45.700;4.880;2023-02-03T08:22:49;6.97;;;1.53;;
17091;SDS011;8661;45.700;4.880;2023-02-03T08:25:17;6.27;;;1.87;;
17091;SDS011;8661;45.700;4.880;2023-02-03T08:27:44;6.83;;;1.90;;
17091;SDS011;8661;45.700;4.880;2023-02-03T08:30:12;10.87;;;2.57;;
17091;SDS011;8661;45.700;4.880;2023-02-03T08:32:39;3.63;;;1.83;;
17091;SDS011;8661;45.700;4.880;2023-02-03T08:35:07;4.47;;;2.03;;
17091;SDS011;8661;45.700;4.880;2023-02-03T08:37:34;6.33;;;2.03;;
17091;SDS011;8661;45.700;4.880;2023-02-03T08:40:02;4.03;;;1.83;;
17091;SDS011;8661;45.700;4.880;2023-02-03T08:42:29;5.87;;;2.07;;
17091;SDS011;8661;45.700;4.880;2023-02-03T08:44:56;5.77;;;2.00;;
17091;SDS011;8661;45.700;4.880;2023-02-03T08:47:24;5.47;;;1.97;;
17091;SDS011;8661;45.700;4.880;2023-02-03T08:49:51;7.53;;;2.00;;
17091;SDS011;8661;45.700;4.880;2023-02-03T08:52:24;6.47;;;2.00;;
17091;SDS011;8661;45.700;4.880;2023-02-03T08:54:52;3.10;;;1.87;;
17091;SDS011;8661;45.700;4.880;2023-02-03T08:57:20;7.00;;;2.03;;
17091;SDS011;8661;45.700;4.880;2023-02-03T08:59:47;7.37;;;2.20;;
17091;SDS011;8661;45.700;4.880;2023-02-03T09:02:16;7.37;;;2.17;;
17091;SDS011;8661;45.700;4.880;2023-02-03T09:04:45;9.57;;;1.97;;
17091;SDS011;8661;45.700;4.880;2023-02-03T09:07:14;6.30;;;2.20;;
17091;SDS011;8661;45.700;4.880;2023-02-03T09:09:44;7.33;;;2.30;;
17091;SDS011;8661;45.700;4.880;2023-02-03T09:12:11;5.63;;;2.20;;
17091;SDS011;8661;45.700;4.880;2023-02-03T09:14:39;6.80;;;1.90;;
17091;SDS011;8661;45.700;4.880;2023-02-03T09:17:07;4.00;;;1.87;;
17091;SDS011;8661;45.700;4.880;2023-02-03T09:19:35;6.33;;;2.20;;
17091;SDS011;8661;45.700;4.880;2023-02-03T09:22:02;8.00;;;2.17;;
17091;SDS011;8661;45.700;4.880;2023-02-03T09:24:30;7.00;;;2.30;;
17091;SDS011;8661;45.700;4.880;2023-02-03T09:26:58;6.97;;;1.83;;
17091;SDS011;8661;45.700;4.880;2023-02-03T09:29:26;8.10;;;2.10;;
17091;SDS011;8661;45.700;4.880;2023-02-03T09:31:53;7.83;;;2.03;;
17091;SDS011;8661;45.700;4.880;2023-02-03T09:34:20;3.83;;;1.60;;
17091;SDS011;8661;45.700;4.880;2023-02-03T09:36:47;6.13;;;1.50;;
17091;SDS011;8661;45.700;4.880;2023-02-03T09:39:15;5.93;;;1.90;;
17091;SDS011;8661;45.700;4.880;2023-02-03T09:44:35;5.77;;;1.30;;
17091;SDS011;8661;45.700;4.880;2023-02-03T09:47:09;4.73;;;1.40;;
17091;SDS011;8661;45.700;4.880;2023-02-03T09:49:40;6.60;;;1.50;;
17091;SDS011;8661;45.700;4.880;2023-02-03T09:52:12;6.67;;;1.10;;
17091;SDS011;8661;45.700;4.880;2023-02-03T09:54:44;2.57;;;1.00;;
17091;SDS011;8661;45.700;4.880;2023-02-03T09:57:20;6.83;;;1.30;;
17091;SDS011;8661;45.700;4.880;2023-02-03T09:59:49;3.20;;;1.00;;
17091;SDS011;8661;45.700;4.880;2023-02-03T10:02:22;3.20;;;0.90;;
17091;SDS011;8661;45.700;4.880;2023-02-03T10:05:00;2.17;;;1.03;;
17091;SDS011;8661;45.700;4.880;2023-02-03T10:07:35;9.20;;;1.60;;
17091;SDS011;8661;45.700;4.880;2023-02-03T10:10:12;2.87;;;1.10;;
17091;SDS011;8661;45.700;4.880;2023-02-03T10:13:00;1.27;;;0.90;;
17091;SDS011;8661;45.700;4.880;2023-02-03T10:18:54;1.87;;;1.10;;
17091;SDS011;8661;45.700;4.880;2023-02-03T10:21:30;5.13;;;1.10;;
17091;SDS011;8661;45.700;4.880;2023-02-03T10:24:02;3.50;;;1.37;;
17091;SDS011;8661;45.700;4.880;2023-02-03T10:26:36;3.93;;;1.17;;
17091;SDS011;8661;45.700;4.880;2023-02-03T10:29:12;2.40;;;0.93;;
17091;SDS011;8661;45.700;4.880;2023-02-03T10:31:45;5.03;;;1.10;;
17091;SDS011;8661;45.700;4.880;2023-02-03T10:34:14;6.17;;;1.17;;
17091;SDS011;8661;45.700;4.880;2023-02-03T10:36:47;1.47;;;0.90;;
17091;SDS011;8661;45.700;4.880;2023-02-03T10:39:23;4.73;;;0.80;;
17091;SDS011;8661;45.700;4.880;2023-02-03T10:41:57;4.87;;;1.30;;
17091;SDS011;8661;45.700;4.880;2023-02-03T10:44:30;8.03;;;1.87;;
17091;SDS011;8661;45.700;4.880;2023-02-03T10:47:09;2.87;;;1.10;;
17091;SDS011;8661;45.700;4.880;2023-02-03T10:49:46;1.57;;;0.90;;
17091;SDS011;8661;45.700;4.880;2023-02-03T10:52:23;2.60;;;1.10;;
17091;SDS011;8661;45.700;4.880;2023-02-03T10:54:56;4.97;;;0.93;;
17091;SDS011;8661;45.700;4.880;2023-02-03T10:57:24;2.77;;;0.90;;
17091;SDS011;8661;45.700;4.880;2023-02-03T11:00:03;3.17;;;0.80;;
17091;SDS011;8661;45.700;4.880;2023-02-03T11:02:33;3.40;;;0.90;;
17091;SDS011;8661;45.700;4.880;2023-02-03T11:05:07;3.70;;;1.00;;
17091;SDS011;8661;45.700;4.880;2023-02-03T11:07:45;4.73;;;1.10;;
17091;SDS011;8661;45.700;4.880;2023-02-03T11:10:29;2.70;;;0.80;;
17091;SDS011;8661;45.700;4.880;2023-02-03T11:13:10;2.57;;;0.90;;
17091;SDS011;8661;45.700;4.880;2023-02-03T11:15:45;1.97;;;0.97;;
17091;SDS011;8661;45.700;4.880;2023-02-03T11:18:25;4.00;;;0.90;;
17091;SDS011;8661;45.700;4.880;2023-02-03T11:21:05;2.13;;;0.87;;
17091;SDS011;8661;45.700;4.880;2023-02-03T11:23:34;4.00;;;0.70;;
17091;SDS011;8661;45.700;4.880;2023-02-03T11:26:11;1.73;;;0.80;;
17091;SDS011;8661;45.700;4.880;2023-02-03T11:28:41;2.80;;;1.03;;
17091;SDS011;8661;45.700;4.880;2023-02-03T11:31:20;5.50;;;1.20;;
17091;SDS011;8661;45.700;4.880;2023-02-03T11:33:50;3.87;;;1.30;;
17091;SDS011;8661;45.700;4.880;2023-02-03T11:36:24;2.27;;;1.20;;
17091;SDS011;8661;45.700;4.880;2023-02-03T11:38:53;3.23;;;1.40;;
17091;SDS011;8661;45.700;4.880;2023-02-03T11:41:41;2.45;;;1.10;;
17091;SDS011;8661;45.700;4.880;2023-02-03T11:44:10;1.47;;;0.77;;
17091;SDS011;8661;45.700;4.880;2023-02-03T11:46:39;5.07;;;1.30;;
17091;SDS011;8661;45.700;4.880;2023-02-03T11:49:10;2.37;;;1.10;;
17091;SDS011;8661;45.700;4.880;2023-02-03T11:51:47;3.77;;;1.00;;
17091;SDS011;8661;45.700;4.880;2023-02-03T11:54:24;1.70;;;1.00;;
17091;SDS011;8661;45.700;4.880;2023-02-03T11:57:05;1.67;;;0.90;;
17091;SDS011;8661;45.700;4.880;2023-02-03T11:59:49;3.13;;;1.10;;
17091;SDS011;8661;45.700;4.880;2023-02-03T12:02:38;3.10;;;0.90;;
17091;SDS011;8661;45.700;4.880;2023-02-03T12:05:18;3.17;;;1.13;;
17091;SDS011;8661;45.700;4.880;2023-02-03T12:08:07;7.07;;;1.20;;
17091;SDS011;8661;45.700;4.880;2023-02-03T12:10:44;5.03;;;1.37;;
17091;SDS011;8661;45.700;4.880;2023-02-03T12:13:23;1.63;;;1.00;;
17091;SDS011;8661;45.700;4.880;2023-02-03T12:16:05;3.20;;;1.00;;
17091;SDS011;8661;45.700;4.880;2023-02-03T12:18:43;6.27;;;1.37;;
17091;SDS011;8661;45.700;4.880;2023-02-03T12:21:23;2.50;;;1.00;;
17091;SDS011;8661;45.700;4.880;2023-02-03T12:24:03;2.77;;;1.30;;
17091;SDS011;8661;45.700;4.880;2023-02-03T12:26:41;4.40;;;1.20;;
17091;SDS011;8661;45.700;4.880;2023-02-03T12:29:16;3.37;;;1.13;;
17091;SDS011;8661;45.700;4.880;2023-02-03T12:31:47;4.80;;;1.20;;
17091;SDS011;8661;45.700;4.880;2023-02-03T12:34:29;3.47;;;1.20;;
17091;SDS011;8661;45.700;4.880;2023-02-03T12:37:02;3.37;;;1.47;;
17091;SDS011;8661;45.700;4.880;2023-02-03T12:39:34;4.00;;;1.60;;
17091;SDS011;8661;45.700;4.880;2023-02-03T12:42:08;3.37;;;1.10;;
17091;SDS011;8661;45.700;4.880;2023-02-03T12:44:42;2.50;;;1.20;;
17091;SDS011;8661;45.700;4.880;2023-02-03T12:47:15;1.57;;;1.00;;
17091;SDS011;8661;45.700;4.880;2023-02-03T12:49:52;1.50;;;0.90;;
17091;SDS011;8661;45.700;4.880;2023-02-03T12:52:23;2.80;;;1.00;;
17091;SDS011;8661;45.700;4.880;2023-02-03T12:54:58;5.97;;;1.17;;
17091;SDS011;8661;45.700;4.880;2023-02-03T12:57:33;1.93;;;0.90;;
17091;SDS011;8661;45.700;4.880;2023-02-03T13:00:10;4.70;;;1.07;;
17091;SDS011;8661;45.700;4.880;2023-02-03T13:02:46;1.93;;;1.00;;
17091;SDS011;8661;45.700;4.880;2023-02-03T13:05:23;5.70;;;1.20;;
17091;SDS011;8661;45.700;4.880;2023-02-03T13:07:57;5.77;;;1.20;;
17091;SDS011;8661;45.700;4.880;2023-02-03T13:10:30;2.67;;;1.43;;
17091;SDS011;8661;45.700;4.880;2023-02-03T13:13:02;3.70;;;1.30;;
17091;SDS011;8661;45.700;4.880;2023-02-03T13:15:34;2.13;;;1.10;;
17091;SDS011;8661;45.700;4.880;2023-02-03T13:18:07;3.83;;;1.37;;
17091;SDS011;8661;45.700;4.880;2023-02-03T13:20:45;3.70;;;1.70;;
17091;SDS011;8661;45.700;4.880;2023-02-03T13:23:13;3.37;;;1.43;;
17091;SDS011;8661;45.700;4.880;2023-02-03T13:25:49;3.87;;;1.17;;
17091;SDS011;8661;45.700;4.880;2023-02-03T13:28:37;1.80;;;1.13;;
17091;SDS011;8661;45.700;4.880;2023-02-03T13:31:21;2.43;;;1.37;;
17091;SDS011;8661;45.700;4.880;2023-02-03T13:34:00;4.27;;;1.20;;
17091;SDS011;8661;45.700;4.880;2023-02-03T13:36:53;3.50;;;1.03;;
17091;SDS011;8661;45.700;4.880;2023-02-03T13:39:51;2.97;;;1.30;;
17091;SDS011;8661;45.700;4.880;2023-02-03T13:42:32;4.37;;;1.60;;
17091;SDS011;8661;45.700;4.880;2023-02-03T13:45:05;4.93;;;1.83;;
17091;SDS011;8661;45.700;4.880;2023-02-03T13:47:38;2.50;;;1.13;;
17091;SDS011;8661;45.700;4.880;2023-02-03T13:50:14;2.43;;;1.07;;
17091;SDS011;8661;45.700;4.880;2023-02-03T13:52:51;5.20;;;1.43;;
17091;SDS011;8661;45.700;4.880;2023-02-03T13:55:25;4.33;;;1.17;;
17091;SDS011;8661;45.700;4.880;2023-02-03T13:57:55;3.87;;;1.10;;
17091;SDS011;8661;45.700;4.880;2023-02-03T14:03:45;3.37;;;1.33;;
17091;SDS011;8661;45.700;4.880;2023-02-03T14:09:35;2.60;;;1.30;;
17091;SDS011;8661;45.700;4.880;2023-02-03T14:18:04;6.38;;;1.58;;
17091;SDS011;8661;45.700;4.880;2023-02-03T14:23:49;3.10;;;1.50;;
17091;SDS011;8661;45.700;4.880;2023-02-03T14:26:39;5.57;;;1.30;;
17091;SDS011;8661;45.700;4.880;2023-02-03T14:29:08;2.47;;;1.07;;
17091;SDS011;8661;45.700;4.880;2023-02-03T14:31:53;3.17;;;1.50;;
17091;SDS011;8661;45.700;4.880;2023-02-03T14:34:32;9.97;;;1.40;;
17091;SDS011;8661;45.700;4.880;2023-02-03T14:37:14;2.20;;;1.00;;
17091;SDS011;8661;45.700;4.880;2023-02-03T14:40:07;1.87;;;1.33;;
17091;SDS011;8661;45.700;4.880;2023-02-03T14:52:00;3.13;;;1.40;;
17091;SDS011;8661;45.700;4.880;2023-02-03T14:54:45;3.43;;;1.50;;
17091;SDS011;8661;45.700;4.880;2023-02-03T14:57:28;2.90;;;1.60;;
17091;SDS011;8661;45.700;4.880;2023-02-03T15:00:06;4.27;;;1.30;;
17091;SDS011;8661;45.700;4.880;2023-02-03T15:05:44;3.60;;;1.50;;
17091;SDS011;8661;45.700;4.880;2023-02-03T15:08:31;2.83;;;1.70;;
17091;SDS011;8661;45.700;4.880;2023-02-03T15:11:26;5.23;;;1.60;;
17091;SDS011;8661;45.700;4.880;2023-02-03T15:13:55;5.90;;;1.60;;
17091;SDS011;8661;45.700;4.880;2023-02-03T15:16:24;2.57;;;1.40;;
17091;SDS011;8661;45.700;4.880;2023-02-03T15:18:52;2.23;;;1.37;;
17091;SDS011;8661;45.700;4.880;2023-02-03T15:21:21;3.13;;;1.50;;
17091;SDS011;8661;45.700;4.880;2023-02-03T15:23:48;4.27;;;1.90;;
17091;SDS011;8661;45.700;4.880;2023-02-03T15:26:17;3.53;;;1.77;;
17091;SDS011;8661;45.700;4.880;2023-02-03T15:28:54;4.20;;;1.87;;
17091;SDS011;8661;45.700;4.880;2023-02-03T15:31:26;5.93;;;2.40;;
17091;SDS011;8661;45.700;4.880;2023-02-03T15:34:00;2.47;;;1.70;;
17091;SDS011;8661;45.700;4.880;2023-02-03T15:36:32;4.30;;;1.93;;
17091;SDS011;8661;45.700;4.880;2023-02-03T15:39:07;6.43;;;1.70;;
17091;SDS011;8661;45.700;4.880;2023-02-03T15:41:44;3.30;;;2.00;;
17091;SDS011;8661;45.700;4.880;2023-02-03T15:44:18;2.90;;;1.73;;
17091;SDS011;8661;45.700;4.880;2023-02-03T15:46:52;3.27;;;1.90;;
17091;SDS011;8661;45.700;4.880;2023-02-03T15:49:21;5.57;;;2.00;;
17091;SDS011;8661;45.700;4.880;2023-02-03T15:51:52;9.80;;;2.10;;
17091;SDS011;8661;45.700;4.880;2023-02-03T15:54:24;3.17;;;1.90;;
17091;SDS011;8661;45.700;4.880;2023-02-03T15:56:56;3.30;;;1.83;;
17091;SDS011;8661;45.700;4.880;2023-02-03T15:59:26;3.90;;;1.80;;
17091;SDS011;8661;45.700;4.880;2023-02-03T16:01:58;4.43;;;1.90;;
17091;SDS011;8661;45.700;4.880;2023-02-03T16:04:27;3.30;;;1.90;;
17091;SDS011;8661;45.700;4.880;2023-02-03T16:06:55;4.20;;;1.70;;